Time;durP1;ratioP1;P1;durP2;ratioP2;P2;SDS_P1;SDS_P2;PMS_P1;PMS_P2;Temp;Humidity;BMP_temperature;BMP_pressure;BME280_temperature;BME280_humidity;BME280_pressure;Samples;Min_cycle;Max_cycle;Signal;HPM_P1;HPM_P2
2022/12/27 00:01:51;;;;;;;2.40;1.27;;;7.80;1.00;;;;;;5097580;28;20188;-43
2022/12/27 00:04:17;;;;;;;2.97;1.40;;;7.70;1.00;;;;;;5096326;28;20172;-43
2022/12/27 00:06:42;;;;;;;1.67;1.30;;;7.70;1.00;;;;;;5096790;28;20354;-44
2022/12/27 00:09:08;;;;;;;1.83;1.27;;;7.60;1.00;;;;;;5097208;28;20183;-41
2022/12/27 00:11:34;;;;;;;1.97;1.10;;;7.60;1.00;;;;;;5098148;28;20228;-42
2022/12/27 00:14:01;;;;;;;2.10;1.40;;;7.50;1.00;;;;;;5096653;28;20418;-41
2022/12/27 00:16:27;;;;;;;1.40;1.17;;;7.50;1.00;;;;;;5087666;28;20184;-42
2022/12/27 00:18:53;;;;;;;2.40;1.20;;;7.50;1.00;;;;;;5085658;28;20458;-45
2022/12/27 00:21:19;;;;;;;2.27;1.20;;;7.40;99.90;;;;;;5089328;28;20438;-43
2022/12/27 00:23:47;;;;;;;2.73;1.50;;;7.40;99.90;;;;;;5087529;28;20180;-43
2022/12/27 00:26:18;;;;;;;3.20;1.50;;;7.30;1.00;;;;;;5093287;28;20426;-41
2022/12/27 00:28:44;;;;;;;1.83;1.20;;;7.30;1.00;;;;;;5099118;28;20418;-44
2022/12/27 00:31:10;;;;;;;3.90;1.50;;;7.20;1.00;;;;;;5065003;28;20498;-40
2022/12/27 00:33:38;;;;;;;2.50;1.50;;;7.20;1.00;;;;;;5099497;28;20809;-47
2022/12/27 00:36:06;;;;;;;3.03;1.57;;;7.10;1.00;;;;;;5098915;28;20425;-42
2022/12/27 00:38:32;;;;;;;2.80;1.77;;;7.10;1.00;;;;;;5099075;28;20729;-44
2022/12/27 00:40:57;;;;;;;4.00;1.77;;;7.10;1.00;;;;;;5099569;28;20518;-42
2022/12/27 00:43:23;;;;;;;2.93;1.67;;;7.10;1.00;;;;;;5081510;28;20590;-43
2022/12/27 00:45:49;;;;;;;3.70;1.83;;;7.00;1.00;;;;;;5099842;28;20559;-44
2022/12/27 00:48:14;;;;;;;2.03;1.70;;;7.00;99.90;;;;;;5099887;28;20168;-42
2022/12/27 00:50:41;;;;;;;3.70;1.30;;;6.90;99.90;;;;;;5098990;28;20188;-41
2022/12/27 00:53:08;;;;;;;2.30;1.50;;;6.90;59.30;;;;;;5098909;28;20172;-42
2022/12/27 00:55:34;;;;;;;2.17;1.50;;;6.80;1.00;;;;;;5097240;28;20442;-42
2022/12/27 00:58:03;;;;;;;3.60;1.50;;;6.80;1.00;;;;;;5097872;28;20402;-43
2022/12/27 01:00:28;;;;;;;2.03;1.40;;;6.70;1.00;;;;;;5098259;28;20726;-41
2022/12/27 01:02:54;;;;;;;1.57;1.20;;;6.70;1.00;;;;;;5098437;28;20410;-41
2022/12/27 01:05:20;;;;;;;2.73;1.30;;;6.60;1.00;;;;;;5097120;28;20184;-43
2022/12/27 01:07:46;;;;;;;3.00;1.40;;;6.50;1.00;;;;;;5078038;28;20552;-44
2022/12/27 01:10:12;;;;;;;3.10;1.83;;;6.50;1.00;;;;;;5095048;28;20418;-42
2022/12/27 01:12:38;;;;;;;2.60;1.33;;;6.40;1.00;;;;;;5095367;28;20240;-42
2022/12/27 01:15:04;;;;;;;1.77;1.10;;;6.40;1.00;;;;;;5096123;28;20220;-41
2022/12/27 01:17:30;;;;;;;2.23;1.30;;;6.30;1.00;;;;;;5096181;28;20472;-41
2022/12/27 01:19:55;;;;;;;4.10;1.33;;;6.30;1.00;;;;;;5096359;28;20458;-42
2022/12/27 01:22:21;;;;;;;2.67;1.40;;;6.20;1.00;;;;;;5097425;28;20347;-43
2022/12/27 01:24:47;;;;;;;1.60;1.10;;;6.10;1.00;;;;;;5097463;28;20172;-42
2022/12/27 01:27:12;;;;;;;1.63;1.53;;;6.10;1.00;;;;;;5078620;28;20184;-43
2022/12/27 01:29:38;;;;;;;2.07;1.57;;;6.00;1.00;;;;;;5097250;28;20172;-43
2022/12/27 01:32:04;;;;;;;2.90;1.37;;;6.00;1.00;;;;;;5096878;28;20256;-42
2022/12/27 01:34:29;;;;;;;2.70;1.20;;;5.90;1.00;;;;;;5096897;28;20251;-42
2022/12/27 01:36:55;;;;;;;2.50;1.30;;;5.90;99.90;;;;;;5099716;28;20195;-42
2022/12/27 01:39:20;;;;;;;2.00;1.10;;;5.80;99.90;;;;;;5097859;28;20591;-41
2022/12/27 01:44:37;;;;;;;1.90;1.20;;;5.80;99.90;;;;;;5098356;28;20233;-41
2022/12/27 01:47:06;;;;;;;1.37;1.10;;;5.70;72.60;;;;;;5097024;28;20462;-44
2022/12/27 01:49:32;;;;;;;2.03;1.07;;;5.60;1.00;;;;;;5078576;28;20724;-41
2022/12/27 01:51:57;;;;;;;1.80;1.03;;;5.60;1.00;;;;;;5079165;28;20422;-44
2022/12/27 01:54:23;;;;;;;3.27;1.00;;;5.60;1.00;;;;;;5078812;28;20644;-43
2022/12/27 01:56:49;;;;;;;1.97;1.00;;;5.50;1.00;;;;;;5079487;28;20212;-42
2022/12/27 01:59:15;;;;;;;1.70;1.17;;;5.50;1.00;;;;;;5097179;28;20200;-42
2022/12/27 02:01:46;;;;;;;1.97;1.10;;;5.50;1.00;;;;;;5080072;28;20184;-43
2022/12/27 02:04:14;;;;;;;3.13;1.83;;;5.40;1.00;;;;;;5080175;28;20411;-44
2022/12/27 02:06:40;;;;;;;1.50;1.10;;;5.40;1.00;;;;;;5098049;28;20520;-41
2022/12/27 02:09:09;;;;;;;2.60;1.20;;;5.40;1.00;;;;;;5098079;28;20430;-42
2022/12/27 02:11:51;;;;;;;2.60;1.17;;;5.30;1.00;;;;;;5096620;28;20479;-41
2022/12/27 02:14:24;;;;;;;2.83;1.10;;;5.30;1.00;;;;;;5082445;28;20411;-42
2022/12/27 02:16:50;;;;;;;3.07;1.10;;;5.20;1.00;;;;;;5097687;28;20755;-42
2022/12/27 02:19:38;;;;;;;2.83;1.00;;;5.30;1.00;;;;;;5097644;28;20481;-42
2022/12/27 02:22:21;;;;;;;1.70;1.20;;;5.20;1.00;;;;;;5080308;28;20418;-40
2022/12/27 02:25:24;;;;;;;3.10;1.30;;;5.20;1.00;;;;;;5079297;28;20413;-41
2022/12/27 02:28:20;;;;;;;1.40;0.87;;;5.10;1.00;;;;;;5096722;28;20416;-43
2022/12/27 02:30:48;;;;;;;3.03;1.20;;;5.10;1.00;;;;;;5096773;28;20482;-43
2022/12/27 02:33:26;;;;;;;1.83;1.00;;;5.10;1.00;;;;;;5062112;28;20418;-41
2022/12/27 02:36:02;;;;;;;2.13;0.97;;;5.00;1.00;;;;;;5097108;28;20710;-42
2022/12/27 02:38:34;;;;;;;2.07;0.93;;;5.00;1.00;;;;;;5078451;28;20488;-41
2022/12/27 02:55:26;;;;;;;2.20;1.20;;;4.90;31.80;;;;;;5094621;28;21090;-43
2022/12/27 02:58:14;;;;;;;1.43;1.00;;;4.80;67.10;;;;;;5096429;28;20432;-41
2022/12/27 03:04:12;;;;;;;1.90;1.40;;;4.80;99.90;;;;;;5078279;28;20413;-43
2022/12/27 03:06:46;;;;;;;1.97;1.10;;;4.70;98.00;;;;;;5077603;28;20414;-40
2022/12/27 03:15:53;;;;;;;3.37;1.57;;;4.70;99.90;;;;;;5078069;28;21054;-42
2022/12/27 03:18:19;;;;;;;2.33;0.97;;;4.60;99.90;;;;;;5096461;28;20453;-41
2022/12/27 03:26:17;;;;;;;3.33;1.40;;;4.50;99.90;;;;;;5095399;28;20429;-40
2022/12/27 03:34:34;;;;;;;4.30;1.73;;;4.40;99.90;;;;;;5080456;28;20405;-42
2022/12/27 03:40:09;;;;;;;3.17;1.60;;;4.30;99.90;;;;;;5081611;28;20461;-43
2022/12/27 03:48:42;;;;;;;1.60;1.47;;;4.20;99.90;;;;;;5082495;28;20406;-42
2022/12/27 03:51:08;;;;;;;1.20;0.90;;;4.20;99.90;;;;;;5096822;28;20523;-45
2022/12/27 03:53:37;;;;;;;1.70;1.20;;;4.20;99.90;;;;;;5079280;28;20452;-42
2022/12/27 03:56:04;;;;;;;1.70;1.03;;;4.20;99.90;;;;;;5099019;28;20430;-42
2022/12/27 03:58:30;;;;;;;2.23;1.33;;;4.10;99.90;;;;;;5081686;28;20465;-40
2022/12/27 04:00:55;;;;;;;1.60;1.20;;;4.10;99.90;;;;;;5099487;28;20430;-43
2022/12/27 04:03:21;;;;;;;2.23;1.60;;;4.10;99.90;;;;;;5064689;28;20172;-41
2022/12/27 04:05:46;;;;;;;1.60;1.07;;;4.10;99.90;;;;;;5098606;28;20184;-43
2022/12/27 04:35:33;;;;;;;1.70;1.07;;;3.80;1.00;;;;;;5098087;28;20509;-41
2022/12/27 04:37:59;;;;;;;1.77;1.50;;;3.80;1.00;;;;;;5097705;28;20502;-41
2022/12/27 04:57:01;;;;;;;1.87;1.50;;;3.70;1.00;;;;;;5096536;28;20487;-41
2022/12/27 05:02:11;;;;;;;3.77;1.60;;;3.60;1.00;;;;;;5097282;28;20960;-41
2022/12/27 05:04:38;;;;;;;2.37;1.57;;;3.60;1.00;;;;;;5097111;28;20514;-42
2022/12/27 05:15:21;;;;;;;2.90;1.97;;;3.60;1.00;;;;;;5097495;28;20552;-43
2022/12/27 05:17:47;;;;;;;3.00;1.57;;;3.60;1.00;;;;;;5098188;28;20881;-42
2022/12/27 05:20:12;;;;;;;2.67;1.60;;;3.50;1.00;;;;;;5098180;28;20240;-41
2022/12/27 05:25:34;;;;;;;3.40;1.90;;;3.50;1.00;;;;;;5096295;28;20175;-41
2022/12/27 05:28:01;;;;;;;2.83;1.70;;;3.50;1.00;;;;;;5095584;28;20415;-41
2022/12/27 05:30:26;;;;;;;5.33;1.57;;;3.50;1.00;;;;;;5095115;28;20900;-41
2022/12/27 05:32:55;;;;;;;2.67;1.40;;;3.50;1.00;;;;;;5096933;28;20517;-42
2022/12/27 05:35:21;;;;;;;2.13;1.67;;;3.50;1.00;;;;;;5096105;28;20172;-41
2022/12/27 05:37:46;;;;;;;2.77;1.80;;;3.50;1.00;;;;;;5095055;28;20864;-42
2022/12/27 05:40:12;;;;;;;3.40;1.60;;;3.50;1.00;;;;;;5096011;28;20196;-41
2022/12/27 05:42:38;;;;;;;2.57;1.80;;;3.50;1.00;;;;;;5096316;28;20177;-41
2022/12/27 05:45:04;;;;;;;3.80;1.57;;;3.50;1.00;;;;;;5096066;28;20168;-42
2022/12/27 05:47:29;;;;;;;2.20;1.43;;;3.40;1.00;;;;;;5079105;28;20187;-41
2022/12/27 05:49:56;;;;;;;1.70;1.13;;;3.40;1.00;;;;;;5096387;28;20418;-42
2022/12/27 05:52:23;;;;;;;1.40;1.10;;;3.40;1.00;;;;;;5096640;28;20176;-42
2022/12/27 05:54:48;;;;;;;1.63;1.50;;;3.40;1.00;;;;;;5096110;28;20419;-44
2022/12/27 05:57:14;;;;;;;1.70;1.33;;;3.40;1.00;;;;;;5078694;28;20429;-43
2022/12/27 05:59:39;;;;;;;3.47;1.73;;;3.40;1.00;;;;;;5095645;28;20200;-41
2022/12/27 06:02:05;;;;;;;3.17;1.60;;;3.40;1.00;;;;;;5095059;28;20199;-41
2022/12/27 06:04:30;;;;;;;2.07;1.53;;;3.40;1.00;;;;;;5096330;28;20213;-42
2022/12/27 06:06:58;;;;;;;2.50;1.70;;;3.40;1.00;;;;;;5096736;28;20674;-41
2022/12/27 06:09:24;;;;;;;3.57;1.73;;;3.40;1.00;;;;;;5096462;28;20168;-41
2022/12/27 06:11:49;;;;;;;3.40;1.80;;;3.30;1.00;;;;;;5095837;28;20500;-40
2022/12/27 06:14:15;;;;;;;2.43;1.60;;;3.30;1.00;;;;;;5095464;28;20418;-42
2022/12/27 06:16:41;;;;;;;3.00;1.50;;;3.30;1.00;;;;;;5095625;28;20188;-41
2022/12/27 06:19:06;;;;;;;1.77;1.50;;;3.30;1.00;;;;;;5095811;28;20204;-41
2022/12/27 06:21:32;;;;;;;1.60;1.20;;;3.30;1.00;;;;;;5095906;28;20172;-44
2022/12/27 06:23:58;;;;;;;2.33;1.40;;;3.30;1.00;;;;;;5094657;28;20237;-43
2022/12/27 06:26:26;;;;;;;2.03;1.23;;;3.30;1.00;;;;;;5095906;28;20245;-42
2022/12/27 06:28:53;;;;;;;2.80;1.40;;;3.30;1.00;;;;;;5062766;28;20459;-42
2022/12/27 06:31:19;;;;;;;2.70;1.53;;;3.30;1.00;;;;;;5096363;28;20435;-41
2022/12/27 06:33:45;;;;;;;2.10;1.60;;;3.30;1.00;;;;;;5097806;28;20413;-40
2022/12/27 06:36:13;;;;;;;3.67;2.07;;;3.20;1.00;;;;;;5096344;28;20422;-42
2022/12/27 06:38:39;;;;;;;2.00;1.53;;;3.20;1.00;;;;;;5096143;28;20548;-42
2022/12/27 06:41:07;;;;;;;4.03;1.70;;;3.20;1.00;;;;;;5078466;28;20502;-42
2022/12/27 06:43:33;;;;;;;4.30;1.77;;;3.20;1.00;;;;;;5096820;28;20398;-44
2022/12/27 06:46:00;;;;;;;2.00;1.60;;;3.20;1.00;;;;;;5077885;28;20426;-42
2022/12/27 06:48:26;;;;;;;1.60;1.50;;;3.20;1.00;;;;;;5093936;28;20418;-41
2022/12/27 06:50:52;;;;;;;3.47;1.70;;;3.20;1.00;;;;;;5094670;28;20435;-43
2022/12/27 06:53:17;;;;;;;3.23;1.57;;;3.20;1.00;;;;;;5095498;28;20172;-43
2022/12/27 06:55:43;;;;;;;2.40;2.00;;;3.20;1.00;;;;;;5093633;28;20248;-41
2022/12/27 06:58:08;;;;;;;3.73;2.30;;;3.20;1.00;;;;;;5094831;28;20202;-43
2022/12/27 07:00:34;;;;;;;2.50;1.47;;;3.10;1.00;;;;;;5077488;28;20674;-41
2022/12/27 07:03:02;;;;;;;4.10;2.00;;;3.10;1.00;;;;;;5095464;28;20556;-41
2022/12/27 07:05:28;;;;;;;2.73;1.87;;;3.10;1.00;;;;;;5095908;28;20172;-42
2022/12/27 07:07:53;;;;;;;3.27;2.00;;;3.10;1.00;;;;;;5096231;28;20417;-42
2022/12/27 07:10:19;;;;;;;6.10;1.97;;;3.10;1.00;;;;;;5096006;28;20452;-42
2022/12/27 07:12:45;;;;;;;3.90;2.27;;;3.10;1.00;;;;;;5078185;28;20608;-42
2022/12/27 07:15:11;;;;;;;2.33;1.83;;;3.10;1.00;;;;;;5095646;28;20421;-42
2022/12/27 07:17:36;;;;;;;4.03;1.90;;;3.10;1.00;;;;;;5096368;28;20176;-42
2022/12/27 07:20:06;;;;;;;2.90;1.83;;;3.10;1.00;;;;;;5095411;28;20726;-41
2022/12/27 07:22:32;;;;;;;3.87;2.00;;;3.10;1.00;;;;;;5078608;28;20207;-42
2022/12/27 07:24:58;;;;;;;3.33;1.83;;;3.10;1.00;;;;;;5096103;28;20403;-43
2022/12/27 07:27:23;;;;;;;4.40;2.10;;;3.20;1.00;;;;;;5095938;28;20426;-43
2022/12/27 07:29:49;;;;;;;4.03;2.50;;;3.20;1.00;;;;;;5098689;28;20255;-43
2022/12/27 07:32:14;;;;;;;4.10;1.93;;;3.20;1.00;;;;;;5099454;28;20181;-42
2022/12/27 07:34:40;;;;;;;2.43;1.70;;;3.30;1.00;;;;;;5099910;28;20180;-42
2022/12/27 07:37:06;;;;;;;4.30;2.13;;;3.30;1.00;;;;;;5100329;28;20172;-45
2022/12/27 07:39:31;;;;;;;2.70;1.63;;;3.40;1.00;;;;;;5100043;28;20336;-41
2022/12/27 07:41:57;;;;;;;3.07;1.90;;;3.40;1.00;;;;;;5081898;28;20177;-42
2022/12/27 07:44:22;;;;;;;3.40;2.17;;;3.50;1.00;;;;;;5099934;28;20661;-43
2022/12/27 07:46:48;;;;;;;3.03;2.00;;;3.60;1.00;;;;;;5099601;28;20242;-41
2022/12/27 07:49:13;;;;;;;2.20;1.67;;;3.70;99.90;;;;;;5099354;28;20187;-41
2022/12/27 07:51:39;;;;;;;3.80;2.27;;;3.90;99.90;;;;;;5099266;28;20284;-42
2022/12/27 07:54:05;;;;;;;2.53;2.10;;;4.20;99.90;;;;;;5099005;28;20432;-41
2022/12/27 07:56:30;;;;;;;2.90;2.20;;;4.50;99.90;;;;;;5099034;28;20168;-41
2022/12/27 07:58:58;;;;;;;1.93;1.70;;;4.80;1.00;;;;;;5081066;28;20285;-41
2022/12/27 08:01:25;;;;;;;4.10;2.20;;;5.20;1.00;;;;;;5082162;28;20253;-43
2022/12/27 08:03:51;;;;;;;4.00;1.80;;;5.50;99.90;;;;;;5098557;28;20805;-41
2022/12/27 08:06:30;;;;;;;7.83;2.20;;;6.00;16.20;;;;;;5097914;28;20425;-44
2022/12/27 08:08:57;;;;;;;4.40;1.73;;;6.50;1.00;;;;;;5079530;28;20176;-44
2022/12/27 08:11:25;;;;;;;4.97;1.60;;;7.30;1.00;;;;;;5078834;28;20615;-45
2022/12/27 08:13:51;;;;;;;6.90;2.50;;;9.30;1.00;;;;;;5096440;28;20835;-46
2022/12/27 08:16:19;;;;;;;7.33;2.27;;;10.70;1.00;;;;;;5095925;28;20422;-46
2022/12/27 08:18:45;;;;;;;6.70;2.20;;;12.00;1.00;;;;;;5095772;28;20458;-49
2022/12/27 08:21:11;;;;;;;3.90;1.80;;;13.10;99.90;;;;;;5096638;28;21063;-47
2022/12/27 08:23:37;;;;;;;4.33;1.97;;;14.30;1.00;;;;;;5078775;28;20403;-40
2022/12/27 08:26:02;;;;;;;4.40;1.70;;;15.30;1.00;;;;;;5097364;28;20419;-42
2022/12/27 08:28:30;;;;;;;4.60;1.70;;;15.90;99.90;;;;;;5097528;28;20172;-44
2022/12/27 08:30:56;;;;;;;2.13;1.70;;;16.20;1.00;;;;;;5098224;28;20180;-41
2022/12/27 08:33:22;;;;;;;2.63;1.67;;;16.40;91.60;;;;;;5099382;28;20851;-41
2022/12/27 08:35:47;;;;;;;2.60;1.23;;;16.50;1.00;;;;;;5098720;28;20449;-43
2022/12/27 08:38:13;;;;;;;2.50;1.50;;;16.70;1.00;;;;;;5097314;28;20259;-42
2022/12/27 08:40:40;;;;;;;2.90;1.60;;;16.90;1.00;;;;;;5098590;28;20246;-41
2022/12/27 08:43:06;;;;;;;3.33;2.10;;;17.10;1.00;;;;;;5098468;28;20191;-42
2022/12/27 08:45:31;;;;;;;3.03;1.57;;;17.50;1.00;;;;;;5097300;28;20402;-43
2022/12/27 08:48:01;;;;;;;2.07;1.50;;;17.80;1.00;;;;;;5097050;28;20745;-40
2022/12/27 08:50:27;;;;;;;3.53;1.73;;;18.20;1.00;;;;;;5097136;28;20254;-42
2022/12/27 08:52:56;;;;;;;1.90;1.40;;;18.60;1.00;;;;;;5097521;28;20825;-42
2022/12/27 08:55:22;;;;;;;2.50;1.60;;;18.90;1.00;;;;;;5096800;28;20415;-42
2022/12/27 08:57:47;;;;;;;3.47;2.00;;;19.30;1.00;;;;;;5096631;28;20418;-42
2022/12/27 09:00:14;;;;;;;3.50;1.50;;;19.80;1.00;;;;;;5095551;28;20306;-42
2022/12/27 09:02:39;;;;;;;8.03;1.40;;;20.20;1.00;;;;;;5095459;28;20244;-44
2022/12/27 09:05:05;;;;;;;2.80;1.60;;;20.60;1.00;;;;;;5097051;28;20814;-43
2022/12/27 09:07:31;;;;;;;3.70;1.60;;;21.00;1.00;;;;;;5097142;28;20164;-44
2022/12/27 09:09:57;;;;;;;2.13;1.43;;;21.40;1.00;;;;;;5096650;28;20741;-45
2022/12/27 09:12:23;;;;;;;1.93;1.20;;;21.80;1.00;;;;;;5095784;28;20474;-42
2022/12/27 09:14:48;;;;;;;1.90;1.37;;;22.20;1.00;;;;;;5096258;28;20414;-43
2022/12/27 09:17:14;;;;;;;2.90;1.30;;;22.60;1.00;;;;;;5096586;28;20177;-41
2022/12/27 09:19:39;;;;;;;3.93;1.50;;;23.10;1.00;;;;;;5098145;28;20296;-43
2022/12/27 09:22:05;;;;;;;3.03;1.73;;;23.50;1.00;;;;;;5097767;28;20213;-43
2022/12/27 09:24:31;;;;;;;2.63;1.67;;;23.90;1.00;;;;;;5097220;28;20272;-44
2022/12/27 09:26:56;;;;;;;3.10;1.73;;;24.20;1.00;;;;;;5097368;28;20190;-43
2022/12/27 09:29:22;;;;;;;3.10;1.73;;;24.50;1.00;;;;;;5095832;28;20172;-43
2022/12/27 09:31:47;;;;;;;2.10;1.50;;;24.90;1.00;;;;;;5095825;28;20191;-42
2022/12/27 09:34:13;;;;;;;4.43;2.17;;;25.40;1.00;;;;;;5094453;28;20168;-42
2022/12/27 09:36:39;;;;;;;2.93;1.80;;;25.70;1.00;;;;;;5091460;28;20216;-44
2022/12/27 09:39:05;;;;;;;2.90;1.30;;;25.90;1.00;;;;;;5093999;28;20196;-43
2022/12/27 09:41:43;;;;;;;3.67;1.40;;;25.90;1.00;;;;;;5092731;28;20463;-45
2022/12/27 09:44:35;;;;;;;3.70;2.03;;;25.70;1.00;;;;;;5092406;28;20410;-43
2022/12/27 09:47:10;;;;;;;2.93;2.00;;;25.60;1.00;;;;;;5073990;28;20427;-43
2022/12/27 09:49:47;;;;;;;2.27;1.40;;;25.60;1.00;;;;;;5056161;28;20415;-44
2022/12/27 09:52:20;;;;;;;2.43;1.60;;;25.80;1.00;;;;;;5055722;28;21042;-44
2022/12/27 09:54:58;;;;;;;3.00;2.00;;;25.90;1.00;;;;;;5039587;28;20466;-44
2022/12/27 09:57:29;;;;;;;2.10;1.57;;;25.80;1.00;;;;;;5091048;28;20718;-43
2022/12/27 10:00:04;;;;;;;2.70;1.50;;;25.90;1.00;;;;;;5094161;28;20452;-43
2022/12/27 10:02:29;;;;;;;3.00;1.63;;;26.10;1.00;;;;;;5095214;28;20384;-48
2022/12/27 10:04:56;;;;;;;1.87;1.57;;;26.50;1.00;;;;;;5095163;28;20554;-44
2022/12/27 10:07:41;;;;;;;2.63;1.47;;;27.00;1.00;;;;;;5094272;28;20181;-43
2022/12/27 10:17:47;;;;;;;3.63;1.40;;;27.20;1.00;;;;;;5071072;28;20470;-45
2022/12/27 10:20:57;;;;;;;2.20;1.33;;;26.70;1.00;;;;;;5092324;28;20495;-45
2022/12/27 10:23:26;;;;;;;2.30;1.53;;;26.40;1.00;;;;;;5047316;28;20853;-44
2022/12/27 10:25:57;;;;;;;2.80;1.50;;;26.30;1.00;;;;;;5094571;28;20716;-42
2022/12/27 10:28:27;;;;;;;3.10;1.47;;;26.10;1.00;;;;;;5083459;28;20426;-43
2022/12/27 10:30:53;;;;;;;3.03;1.73;;;25.90;1.00;;;;;;5076543;28;20418;-45
2022/12/27 10:33:26;;;;;;;2.57;1.60;;;26.10;1.00;;;;;;5091987;28;20458;-43
2022/12/27 10:35:52;;;;;;;2.33;1.40;;;26.50;1.00;;;;;;5093215;28;20484;-43
2022/12/27 10:38:19;;;;;;;3.23;1.33;;;26.70;1.00;;;;;;5093230;28;20422;-43
2022/12/27 10:41:01;;;;;;;2.00;1.60;;;26.90;1.00;;;;;;5094079;28;20433;-43
2022/12/27 10:43:35;;;;;;;2.30;1.53;;;26.90;1.00;;;;;;5076776;28;20433;-44
2022/12/27 10:46:14;;;;;;;2.57;1.83;;;26.70;1.00;;;;;;5075952;28;20414;-46
2022/12/27 10:48:40;;;;;;;2.17;1.30;;;26.20;1.00;;;;;;5077762;28;20464;-42
2022/12/27 10:51:10;;;;;;;2.30;1.77;;;26.00;1.00;;;;;;5076631;28;20429;-43
2022/12/27 10:53:53;;;;;;;1.53;1.20;;;25.80;1.00;;;;;;5075839;28;20427;-42
2022/12/27 10:56:27;;;;;;;1.90;1.20;;;26.00;1.00;;;;;;5093616;28;20422;-43
2022/12/27 10:59:04;;;;;;;2.07;1.23;;;26.10;1.00;;;;;;5093242;28;20465;-44
2022/12/27 11:01:33;;;;;;;2.80;1.60;;;26.50;1.00;;;;;;5092359;28;20414;-43
2022/12/27 11:04:08;;;;;;;1.60;1.07;;;26.90;1.00;;;;;;5077716;28;20414;-43
2022/12/27 11:06:34;;;;;;;3.43;1.63;;;27.70;1.00;;;;;;5097933;28;20414;-43
2022/12/27 11:09:35;;;;;;;2.17;1.47;;;28.50;1.00;;;;;;5097848;28;20396;-44
2022/12/27 11:12:12;;;;;;;2.27;1.47;;;29.20;1.00;;;;;;5097997;28;20176;-45
2022/12/27 11:14:52;;;;;;;2.90;1.53;;;29.60;1.00;;;;;;5098108;28;20848;-46
2022/12/27 11:17:22;;;;;;;2.87;1.83;;;29.40;1.00;;;;;;5098168;28;20972;-46
2022/12/27 11:19:47;;;;;;;3.07;1.37;;;29.50;1.00;;;;;;5079759;28;20982;-47
2022/12/27 11:22:13;;;;;;;2.63;1.30;;;30.20;1.00;;;;;;5097502;28;20509;-49
2022/12/27 11:24:45;;;;;;;6.30;1.40;;;31.10;1.00;;;;;;5080114;28;20475;-45
2022/12/27 11:27:21;;;;;;;2.37;1.40;;;32.10;1.00;;;;;;5097814;28;20179;-46
2022/12/27 11:29:47;;;;;;;4.20;1.63;;;32.70;1.00;;;;;;5096361;28;20418;-47
2022/12/27 11:32:13;;;;;;;2.30;1.57;;;33.30;1.00;;;;;;5097597;28;20416;-45
2022/12/27 11:34:43;;;;;;;2.57;1.40;;;33.50;1.00;;;;;;5098147;28;20212;-48
2022/12/27 11:37:15;;;;;;;2.93;1.30;;;33.40;1.00;;;;;;5079480;28;20574;-45
2022/12/27 11:39:50;;;;;;;2.37;1.40;;;33.20;1.00;;;;;;5078584;28;20776;-46
2022/12/27 11:42:39;;;;;;;2.63;1.50;;;32.90;1.00;;;;;;5097352;28;20406;-47
2022/12/27 11:45:39;;;;;;;2.70;1.90;;;32.50;1.00;;;;;;5079385;28;20380;-46
2022/12/27 11:48:29;;;;;;;1.80;1.40;;;32.50;1.00;;;;;;5074158;28;20419;-45
2022/12/27 11:51:08;;;;;;;2.30;1.67;;;32.80;1.00;;;;;;5077166;28;20484;-45
2022/12/27 11:53:47;;;;;;;4.33;1.77;;;32.90;1.00;;;;;;5096906;28;20499;-47
2022/12/27 11:56:27;;;;;;;4.13;1.70;;;33.00;1.00;;;;;;5096211;28;20422;-46
2022/12/27 11:59:30;;;;;;;4.60;2.00;;;32.70;1.00;;;;;;5077052;28;20608;-49
2022/12/27 12:02:23;;;;;;;4.83;2.10;;;32.50;1.00;;;;;;5076703;28;20414;-45
2022/12/27 12:05:01;;;;;;;2.43;1.90;;;32.30;1.00;;;;;;5093320;28;20796;-46
2022/12/27 12:08:10;;;;;;;2.63;1.97;;;31.90;1.00;;;;;;5095134;28;20900;-46
2022/12/27 12:10:57;;;;;;;2.80;2.03;;;31.40;1.00;;;;;;5076653;28;20457;-45
2022/12/27 12:13:41;;;;;;;3.63;2.40;;;30.80;1.00;;;;;;5077449;28;20448;-45
2022/12/27 12:16:35;;;;;;;2.67;1.80;;;30.40;1.00;;;;;;5095731;28;20664;-46
2022/12/27 12:19:23;;;;;;;3.00;1.97;;;30.20;1.00;;;;;;5092789;28;20719;-48
2022/12/27 12:22:22;;;;;;;2.50;1.83;;;30.20;1.00;;;;;;5058517;28;20689;-47
2022/12/27 12:25:05;;;;;;;3.10;1.90;;;30.20;1.00;;;;;;5089723;28;20423;-48
2022/12/27 12:27:58;;;;;;;2.33;1.50;;;30.60;1.00;;;;;;5073273;28;20401;-46
2022/12/27 12:30:49;;;;;;;2.87;1.63;;;31.00;1.00;;;;;;5021576;28;20852;-46
2022/12/27 12:33:38;;;;;;;3.13;1.70;;;31.60;1.00;;;;;;5091429;28;20408;-48
2022/12/27 12:36:06;;;;;;;4.00;1.90;;;32.30;1.00;;;;;;5090651;28;20518;-48
2022/12/27 12:38:51;;;;;;;3.60;2.00;;;32.90;1.00;;;;;;5093659;28;20860;-47
2022/12/27 12:41:40;;;;;;;2.77;1.63;;;33.20;1.00;;;;;;5076231;28;20577;-46
2022/12/27 12:44:05;;;;;;;1.80;1.50;;;33.10;1.00;;;;;;5095383;28;20413;-47
2022/12/27 12:46:50;;;;;;;2.30;1.80;;;33.00;1.00;;;;;;5096321;28;20441;-46
2022/12/27 12:49:37;;;;;;;2.20;1.30;;;32.70;1.00;;;;;;5079426;28;20192;-46
2022/12/27 12:52:20;;;;;;;2.40;1.90;;;32.30;1.00;;;;;;5094404;28;20389;-46
2022/12/27 12:55:16;;;;;;;2.13;1.60;;;31.70;1.00;;;;;;5095933;28;20407;-46
2022/12/27 12:58:06;;;;;;;1.97;1.60;;;31.40;1.00;;;;;;5096829;28;20505;-46
2022/12/27 13:00:55;;;;;;;2.40;1.43;;;31.40;1.00;;;;;;5096379;28;20473;-46
2022/12/27 13:03:42;;;;;;;2.97;1.67;;;31.60;1.00;;;;;;5075346;28;20413;-47
2022/12/27 13:06:32;;;;;;;3.30;1.50;;;31.90;1.00;;;;;;5092158;28;20415;-46
2022/12/27 13:09:22;;;;;;;2.80;1.43;;;31.90;1.00;;;;;;5076170;28;20671;-46
2022/12/27 13:12:11;;;;;;;2.20;1.30;;;31.10;1.00;;;;;;5076233;28;20426;-46
2022/12/27 13:15:14;;;;;;;2.67;1.50;;;30.40;1.00;;;;;;5094918;28;20529;-46
2022/12/27 13:17:45;;;;;;;2.90;1.77;;;30.10;1.00;;;;;;5094772;28;20384;-47
2022/12/27 13:20:23;;;;;;;3.00;1.30;;;30.00;1.00;;;;;;5095301;28;20486;-45
2022/12/27 13:22:48;;;;;;;2.40;1.40;;;30.00;1.00;;;;;;5076433;28;20693;-47
2022/12/27 13:25:36;;;;;;;2.23;1.47;;;29.80;1.00;;;;;;5093389;28;20412;-46
2022/12/27 13:28:08;;;;;;;2.10;1.40;;;29.70;1.00;;;;;;5093962;28;20181;-45
2022/12/27 13:30:41;;;;;;;1.63;1.10;;;29.90;1.00;;;;;;5094544;28;20470;-50
2022/12/27 13:33:26;;;;;;;1.90;1.13;;;29.80;1.00;;;;;;5075235;28;20713;-48
2022/12/27 13:36:23;;;;;;;2.33;1.20;;;29.70;1.00;;;;;;5083527;28;20445;-48
2022/12/27 13:39:20;;;;;;;2.40;1.30;;;30.20;1.00;;;;;;5066526;28;20968;-45
2022/12/27 13:42:01;;;;;;;2.50;1.27;;;30.40;1.00;;;;;;5088465;28;20551;-47
2022/12/27 13:44:53;;;;;;;2.00;1.20;;;30.30;1.00;;;;;;5056466;28;20431;-46
2022/12/27 13:47:49;;;;;;;4.60;2.10;;;30.00;1.00;;;;;;5073483;28;20662;-45
2022/12/27 13:51:13;;;;;;;2.60;1.30;;;28.80;1.00;;;;;;5072595;28;20443;-45
2022/12/27 13:54:10;;;;;;;4.13;1.30;;;27.70;1.00;;;;;;5048169;28;20819;-50
2022/12/27 13:57:01;;;;;;;2.40;1.23;;;27.20;1.00;;;;;;5037473;28;20577;-53
2022/12/27 13:59:35;;;;;;;3.30;1.50;;;26.70;1.00;;;;;;5071050;28;20478;-49
2022/12/27 14:02:34;;;;;;;3.00;1.40;;;26.20;1.00;;;;;;5077264;28;20476;-50
2022/12/27 14:05:32;;;;;;;2.73;1.30;;;25.40;1.00;;;;;;5072213;28;20488;-50
2022/12/27 14:08:14;;;;;;;3.17;1.30;;;24.60;1.00;;;;;;5071211;28;20414;-50
2022/12/27 14:10:47;;;;;;;3.93;1.50;;;24.00;1.00;;;;;;5052786;28;20522;-50
2022/12/27 14:13:25;;;;;;;1.80;1.10;;;23.40;1.00;;;;;;5071199;28;20468;-44
2022/12/27 14:16:10;;;;;;;1.70;1.20;;;22.70;1.00;;;;;;5054300;28;20703;-45
2022/12/27 14:18:41;;;;;;;2.90;1.10;;;22.20;1.00;;;;;;5073299;28;20486;-43
2022/12/27 14:21:30;;;;;;;2.80;1.30;;;21.50;99.90;;;;;;5072532;28;20461;-44
2022/12/27 14:24:41;;;;;;;1.53;0.87;;;20.70;99.90;;;;;;5073675;28;20431;-44
2022/12/27 14:27:46;;;;;;;3.37;1.30;;;19.80;99.90;;;;;;4949030;29;20429;-44
2022/12/27 14:30:26;;;;;;;1.93;1.13;;;19.10;99.90;;;;;;4954350;29;20468;-42
2022/12/27 14:33:13;;;;;;;2.40;1.47;;;18.60;99.90;;;;;;5058362;28;20423;-43
2022/12/27 14:36:12;;;;;;;4.13;1.20;;;18.10;99.90;;;;;;5074301;28;20430;-46
2022/12/27 14:39:18;;;;;;;1.30;0.90;;;17.60;99.90;;;;;;5071482;28;20428;-44
2022/12/27 14:41:52;;;;;;;3.20;1.27;;;17.20;99.90;;;;;;5056280;28;20427;-44
2022/12/27 14:45:08;;;;;;;2.40;1.03;;;16.80;99.90;;;;;;5072009;28;21493;-43
2022/12/27 14:48:02;;;;;;;3.00;1.20;;;16.30;99.90;;;;;;5020699;28;20415;-42
2022/12/27 14:50:46;;;;;;;1.90;0.90;;;15.90;99.90;;;;;;5074111;28;20424;-43
2022/12/27 14:53:18;;;;;;;2.63;1.00;;;15.50;99.90;;;;;;5054607;28;20446;-43
2022/12/27 14:56:21;;;;;;;3.20;1.43;;;15.20;99.90;;;;;;5072977;28;20431;-43
2022/12/27 14:58:53;;;;;;;3.00;1.47;;;14.80;99.90;;;;;;5019441;28;20486;-42
2022/12/27 15:01:36;;;;;;;1.93;1.10;;;14.50;99.90;;;;;;5070596;28;20778;-44
2022/12/27 15:04:28;;;;;;;2.50;1.33;;;14.20;99.90;;;;;;5072042;28;20551;-44
2022/12/27 15:07:17;;;;;;;2.87;1.67;;;13.90;99.90;;;;;;5071467;28;20450;-44
2022/12/27 15:10:18;;;;;;;2.67;1.53;;;13.60;99.90;;;;;;5072077;28;20423;-41
2022/12/27 15:12:55;;;;;;;4.03;1.27;;;13.30;99.90;;;;;;5069240;28;20514;-42
2022/12/27 15:15:37;;;;;;;1.67;1.33;;;13.10;99.90;;;;;;5070500;28;20492;-44
2022/12/27 15:18:18;;;;;;;2.40;1.30;;;12.90;99.90;;;;;;5070930;28;20502;-43
2022/12/27 15:21:10;;;;;;;2.57;1.57;;;12.70;99.90;;;;;;5054187;28;20524;-43
2022/12/27 15:23:42;;;;;;;3.30;1.50;;;12.50;99.90;;;;;;5071275;28;20699;-43
2022/12/27 15:26:14;;;;;;;2.57;1.50;;;12.30;99.90;;;;;;5072803;28;20423;-42